Time;durP1;ratioP1;P1;durP2;ratioP2;P2;SDS_P1;SDS_P2;PMS_P1;PMS_P2;Temp;Humidity;BMP_temperature;BMP_pressure;BME280_temperature;BME280_humidity;BME280_pressure;Samples;Min_cycle;Max_cycle;Signal;HPM_P1;HPM_P2
2024/04/02 00:00:37;;;;;;;0.45;0.22;;;6.80;99.90;;;;;;4995471;28;20053;-79
2024/04/02 00:03:07;;;;;;;0.82;0.30;;;6.80;99.90;;;;;;4997187;28;20033;-78
2024/04/02 00:05:34;;;;;;;1.23;0.47;;;6.60;99.90;;;;;;4994786;28;20124;-78
2024/04/02 00:08:02;;;;;;;1.52;0.35;;;6.50;99.90;;;;;;4996420;28;20579;-79
2024/04/02 00:10:28;;;;;;;2.60;0.20;;;6.50;99.90;;;;;;4995466;28;20394;-79
2024/04/02 00:12:54;;;;;;;1.85;0.55;;;6.40;99.90;;;;;;4997137;28;20034;-78
2024/04/02 00:15:19;;;;;;;1.90;0.30;;;6.40;99.90;;;;;;4995843;28;20037;-79
2024/04/02 00:17:45;;;;;;;0.75;0.22;;;6.40;99.90;;;;;;4996233;28;20037;-81
2024/04/02 00:20:11;;;;;;;1.60;0.60;;;6.50;99.90;;;;;;4997306;28;20070;-78
2024/04/02 00:22:37;;;;;;;0.63;0.22;;;6.30;99.90;;;;;;4996073;28;20117;-79
2024/04/02 00:25:03;;;;;;;0.80;0.20;;;6.20;99.90;;;;;;4997182;28;20038;-78
2024/04/02 00:27:29;;;;;;;1.35;0.40;;;6.20;99.90;;;;;;4995572;28;20503;-79
2024/04/02 00:29:55;;;;;;;0.50;0.28;;;6.10;99.90;;;;;;4995787;28;20036;-79
2024/04/02 00:32:22;;;;;;;1.08;0.30;;;6.10;99.90;;;;;;4996681;28;20106;-78
2024/04/02 00:34:48;;;;;;;1.13;0.20;;;6.10;99.90;;;;;;4995533;28;20046;-78
2024/04/02 00:37:14;;;;;;;0.55;0.20;;;6.20;99.90;;;;;;4996694;28;20042;-78
2024/04/02 00:39:42;;;;;;;0.55;0.10;;;6.10;99.90;;;;;;5001043;28;20048;-79
2024/04/02 00:42:07;;;;;;;3.35;0.40;;;6.00;99.90;;;;;;4999808;28;20049;-78
2024/04/02 00:44:34;;;;;;;0.32;0.20;;;5.80;99.90;;;;;;5000415;28;20034;-78
2024/04/02 00:46:59;;;;;;;4.47;0.10;;;5.80;99.90;;;;;;5000449;28;20038;-78
2024/04/02 00:49:25;;;;;;;0.25;0.20;;;5.70;99.90;;;;;;4999337;28;21206;-78
2024/04/02 00:51:52;;;;;;;0.15;0.10;;;5.90;99.90;;;;;;4998564;28;20370;-78
2024/04/02 00:54:18;;;;;;;0.95;0.30;;;5.90;99.90;;;;;;5001117;28;20030;-78
2024/04/02 00:56:45;;;;;;;0.10;0.00;;;5.90;99.90;;;;;;4999251;28;20038;-78
2024/04/02 00:59:11;;;;;;;0.75;0.22;;;5.80;99.90;;;;;;4999101;28;20061;-81
2024/04/02 01:01:37;;;;;;;0.75;0.17;;;6.00;99.90;;;;;;4999651;28;20096;-81
2024/04/02 01:04:03;;;;;;;1.35;0.52;;;6.00;99.90;;;;;;4999392;28;20524;-81
2024/04/02 01:06:29;;;;;;;0.55;0.20;;;5.90;99.90;;;;;;4998612;28;20033;-81
2024/04/02 01:08:55;;;;;;;1.92;0.50;;;5.80;99.90;;;;;;4999490;28;20033;-81
2024/04/02 01:11:22;;;;;;;0.55;0.28;;;5.80;99.90;;;;;;5000082;28;20026;-81
2024/04/02 01:13:48;;;;;;;0.65;0.20;;;5.90;99.90;;;;;;4998626;28;20064;-81
2024/04/02 01:16:18;;;;;;;1.15;0.30;;;5.90;99.90;;;;;;4998616;28;20626;-78
2024/04/02 01:18:47;;;;;;;0.85;0.20;;;5.90;99.90;;;;;;4999596;28;20037;-81
2024/04/02 01:21:16;;;;;;;0.80;0.13;;;6.00;99.90;;;;;;4998832;28;20042;-80
2024/04/02 01:23:42;;;;;;;1.67;0.47;;;6.10;99.90;;;;;;4997223;28;20412;-81
2024/04/02 01:26:08;;;;;;;1.10;0.60;;;6.20;99.90;;;;;;4999928;28;20030;-80
2024/04/02 01:28:34;;;;;;;0.68;0.25;;;6.00;99.90;;;;;;4999217;28;20063;-81
2024/04/02 01:30:59;;;;;;;0.82;0.25;;;6.10;99.90;;;;;;4998253;28;20037;-81
2024/04/02 01:33:25;;;;;;;0.45;0.10;;;6.30;99.90;;;;;;4999847;28;20034;-79
2024/04/02 01:35:51;;;;;;;2.70;0.30;;;6.60;99.90;;;;;;4998548;28;20451;-79
2024/04/02 01:38:16;;;;;;;0.55;0.30;;;6.60;99.90;;;;;;4998018;28;20038;-81
2024/04/02 01:40:42;;;;;;;0.57;0.30;;;6.40;99.90;;;;;;4999953;28;20041;-81
2024/04/02 01:43:08;;;;;;;0.95;0.30;;;6.40;99.90;;;;;;4999132;28;20461;-78
2024/04/02 01:45:34;;;;;;;0.30;0.17;;;6.20;99.90;;;;;;4998129;28;20880;-78
2024/04/02 01:48:02;;;;;;;0.98;0.32;;;6.10;99.90;;;;;;5000242;28;20034;-79
2024/04/02 01:50:29;;;;;;;0.68;0.20;;;5.90;99.90;;;;;;4997631;28;20420;-79
2024/04/02 01:52:55;;;;;;;0.32;0.20;;;5.70;99.90;;;;;;4998195;28;20463;-78
2024/04/02 01:55:21;;;;;;;0.75;0.30;;;5.80;99.90;;;;;;4999219;28;20042;-78
2024/04/02 01:57:47;;;;;;;3.42;0.50;;;5.80;99.90;;;;;;4998333;28;20030;-78
2024/04/02 02:00:14;;;;;;;1.10;0.20;;;5.90;99.90;;;;;;4998352;28;20057;-79
2024/04/02 02:02:40;;;;;;;1.15;0.40;;;5.80;99.90;;;;;;4998868;28;20042;-78
2024/04/02 02:05:06;;;;;;;0.95;0.20;;;5.70;99.90;;;;;;4997780;28;20057;-78
2024/04/02 02:07:31;;;;;;;0.73;0.52;;;5.80;99.90;;;;;;4998107;28;20030;-79
2024/04/02 02:09:57;;;;;;;0.17;0.17;;;5.90;99.90;;;;;;4998791;28;20041;-79
2024/04/02 02:12:23;;;;;;;1.60;0.40;;;6.00;99.90;;;;;;4998089;28;20060;-78
2024/04/02 02:14:48;;;;;;;0.63;0.17;;;5.70;99.90;;;;;;4998788;28;20041;-78
2024/04/02 02:17:14;;;;;;;1.05;0.40;;;5.60;99.90;;;;;;4999045;28;20095;-79
2024/04/02 02:19:40;;;;;;;1.73;0.50;;;5.70;99.90;;;;;;4997617;28;20049;-78
2024/04/02 02:22:06;;;;;;;0.98;0.32;;;5.70;99.90;;;;;;4997972;28;20046;-79
2024/04/02 02:24:32;;;;;;;0.68;0.38;;;5.80;99.90;;;;;;4998787;28;20839;-78
2024/04/02 02:26:58;;;;;;;2.05;0.50;;;5.80;99.90;;;;;;4997985;28;20038;-78
2024/04/02 02:29:25;;;;;;;1.83;0.30;;;5.70;99.90;;;;;;4998086;28;20036;-79
2024/04/02 02:31:54;;;;;;;1.02;0.30;;;5.70;99.90;;;;;;4999038;28;20763;-78
2024/04/02 02:34:19;;;;;;;1.60;0.20;;;5.60;99.90;;;;;;4998112;28;20759;-81
2024/04/02 02:36:45;;;;;;;0.77;0.30;;;5.50;99.90;;;;;;4997793;28;20028;-78
2024/04/02 02:39:11;;;;;;;1.63;0.50;;;5.50;99.90;;;;;;4998763;28;20046;-81
2024/04/02 02:41:37;;;;;;;0.73;0.30;;;5.50;99.90;;;;;;4997885;28;20427;-78
2024/04/02 02:44:04;;;;;;;2.00;0.38;;;5.50;99.90;;;;;;4997465;28;20087;-78
2024/04/02 02:46:30;;;;;;;0.13;0.13;;;5.50;99.90;;;;;;4998415;28;20050;-79
2024/04/02 02:48:57;;;;;;;1.35;0.35;;;5.60;99.90;;;;;;4997794;28;20091;-78
2024/04/02 02:51:22;;;;;;;3.08;0.43;;;5.40;99.90;;;;;;4997598;28;20033;-78
2024/04/02 02:53:48;;;;;;;0.93;0.30;;;5.40;99.90;;;;;;4998948;28;20029;-80
2024/04/02 02:56:14;;;;;;;1.17;0.30;;;5.50;99.90;;;;;;4996332;28;20033;-79
2024/04/02 02:58:41;;;;;;;0.35;0.17;;;5.60;99.90;;;;;;4997905;28;20060;-81
2024/04/02 03:01:07;;;;;;;1.00;0.43;;;5.60;99.90;;;;;;4998720;28;20084;-81
2024/04/02 03:03:33;;;;;;;1.10;0.30;;;5.80;99.90;;;;;;4993731;28;20148;-79
2024/04/02 03:05:59;;;;;;;0.80;0.30;;;5.90;99.90;;;;;;4992606;28;20190;-81
2024/04/02 03:08:25;;;;;;;1.40;0.50;;;6.00;99.90;;;;;;4993007;28;20061;-81
2024/04/02 03:10:55;;;;;;;1.25;0.45;;;6.20;99.90;;;;;;4992646;28;20041;-79
2024/04/02 03:13:24;;;;;;;2.72;0.60;;;6.30;99.90;;;;;;4992467;28;20474;-79
2024/04/02 03:15:49;;;;;;;1.70;0.60;;;6.60;99.90;;;;;;4993301;28;20930;-80
2024/04/02 03:18:15;;;;;;;0.82;0.43;;;6.40;99.90;;;;;;4990743;28;20045;-82
2024/04/02 03:20:41;;;;;;;2.78;0.55;;;6.30;99.90;;;;;;4987990;28;20559;-79
2024/04/02 03:23:06;;;;;;;1.27;0.40;;;6.20;99.90;;;;;;4992046;28;20077;-79
2024/04/02 03:25:32;;;;;;;0.38;0.20;;;5.90;99.90;;;;;;4993198;28;20033;-79
2024/04/02 03:27:58;;;;;;;2.17;0.52;;;5.90;99.90;;;;;;4992240;28;20040;-78
2024/04/02 03:30:23;;;;;;;1.55;0.45;;;5.70;99.90;;;;;;4993748;28;20110;-78
2024/04/02 03:32:49;;;;;;;0.85;0.55;;;5.30;99.90;;;;;;4993842;28;21217;-79
2024/04/02 03:35:15;;;;;;;2.55;0.40;;;5.20;99.90;;;;;;4993347;28;20036;-81
2024/04/02 03:37:40;;;;;;;0.70;0.40;;;5.40;99.90;;;;;;4994445;28;20058;-81
2024/04/02 03:40:06;;;;;;;1.58;0.50;;;5.40;99.90;;;;;;4992483;28;20139;-78
2024/04/02 03:42:32;;;;;;;2.08;0.55;;;5.30;99.90;;;;;;4992871;28;20038;-79
2024/04/02 03:44:58;;;;;;;0.75;0.30;;;5.30;99.90;;;;;;4994772;28;20069;-80
2024/04/02 03:47:25;;;;;;;3.58;0.80;;;5.30;99.90;;;;;;4993431;28;20042;-79
2024/04/02 03:49:51;;;;;;;1.63;0.60;;;5.50;99.90;;;;;;4992239;28;20033;-79
2024/04/02 03:52:16;;;;;;;1.88;0.52;;;5.50;99.90;;;;;;4994129;28;20459;-79
2024/04/02 03:54:42;;;;;;;1.45;0.50;;;5.50;99.90;;;;;;4993302;28;20095;-79
2024/04/02 03:57:07;;;;;;;1.35;0.45;;;5.30;99.90;;;;;;4992409;28;20033;-79
2024/04/02 03:59:36;;;;;;;0.45;0.30;;;5.40;99.90;;;;;;4990910;28;20171;-79
2024/04/02 04:02:03;;;;;;;1.55;0.68;;;5.30;99.90;;;;;;4988944;28;20487;-80
2024/04/02 04:04:29;;;;;;;0.55;0.35;;;5.10;99.90;;;;;;4990384;28;20034;-79
2024/04/02 04:06:55;;;;;;;1.67;0.85;;;5.10;99.90;;;;;;4989297;28;20038;-78
2024/04/02 04:09:21;;;;;;;0.73;0.30;;;5.10;99.90;;;;;;4989034;28;20120;-79
2024/04/02 04:11:47;;;;;;;1.17;0.38;;;5.00;99.90;;;;;;4990417;28;20073;-81
2024/04/02 04:14:13;;;;;;;0.82;0.30;;;5.10;99.90;;;;;;4989331;28;20053;-81
2024/04/02 04:16:39;;;;;;;1.88;0.70;;;5.10;99.90;;;;;;4988542;28;20041;-81
2024/04/02 04:19:05;;;;;;;2.75;0.80;;;5.10;99.90;;;;;;4990327;28;20034;-81
2024/04/02 04:21:30;;;;;;;2.13;0.80;;;5.20;99.90;;;;;;4989437;28;20041;-81
2024/04/02 04:23:56;;;;;;;3.47;0.95;;;5.00;99.90;;;;;;4989511;28;20037;-81
2024/04/02 04:26:22;;;;;;;2.08;0.70;;;5.00;99.90;;;;;;4991149;28;20034;-81
2024/04/02 04:28:47;;;;;;;1.15;0.50;;;5.10;99.90;;;;;;4990013;28;20034;-82
2024/04/02 04:31:13;;;;;;;2.28;0.57;;;5.30;99.90;;;;;;4990412;28;20045;-80
2024/04/02 04:33:38;;;;;;;0.82;0.40;;;5.10;99.90;;;;;;4989806;28;20041;-81
2024/04/02 04:36:04;;;;;;;2.90;0.40;;;5.10;99.90;;;;;;4989072;28;20038;-81
2024/04/02 04:38:30;;;;;;;2.88;0.60;;;5.10;99.90;;;;;;4988172;28;20760;-81
2024/04/02 04:40:56;;;;;;;2.80;0.55;;;5.20;99.90;;;;;;4990679;28;20045;-81
2024/04/02 04:43:22;;;;;;;2.75;0.70;;;5.10;99.90;;;;;;4990021;28;20683;-79
2024/04/02 04:45:52;;;;;;;1.65;0.65;;;5.20;99.90;;;;;;4990008;28;20066;-79
2024/04/02 04:48:18;;;;;;;2.92;1.10;;;4.90;99.90;;;;;;4990216;28;20580;-79
2024/04/02 04:50:54;;;;;;;1.20;0.63;;;5.20;99.90;;;;;;4989585;28;20988;-79
2024/04/02 04:53:20;;;;;;;1.50;0.50;;;5.10;99.90;;;;;;4989485;28;20033;-79
2024/04/02 04:55:45;;;;;;;2.60;0.88;;;5.20;99.90;;;;;;4989573;28;20040;-79
2024/04/02 04:58:11;;;;;;;1.88;0.70;;;5.20;99.90;;;;;;4990568;28;20034;-79
2024/04/02 05:00:37;;;;;;;2.53;0.82;;;5.10;99.90;;;;;;4989673;28;20264;-79
2024/04/02 05:03:02;;;;;;;1.98;0.85;;;5.10;99.90;;;;;;4989976;28;20041;-79
2024/04/02 05:05:28;;;;;;;3.33;0.77;;;5.20;99.90;;;;;;4989086;28;20049;-80
2024/04/02 05:07:57;;;;;;;2.10;0.75;;;5.10;99.90;;;;;;4989119;28;20053;-79
2024/04/02 05:10:25;;;;;;;1.63;0.55;;;5.30;99.90;;;;;;4989439;28;20468;-80
2024/04/02 05:12:51;;;;;;;1.08;0.63;;;5.30;99.90;;;;;;4990146;28;20484;-80
2024/04/02 05:15:17;;;;;;;0.98;0.50;;;5.20;99.90;;;;;;4989223;28;20038;-80
2024/04/02 05:17:43;;;;;;;1.40;0.50;;;5.20;99.90;;;;;;4989671;28;20132;-80
2024/04/02 05:20:09;;;;;;;3.00;0.70;;;5.20;99.90;;;;;;4993421;28;20172;-79
2024/04/02 05:22:36;;;;;;;2.40;0.50;;;5.20;99.90;;;;;;4993088;28;20029;-77
2024/04/02 05:25:01;;;;;;;1.67;0.80;;;5.30;99.90;;;;;;4990881;28;20037;-77
2024/04/02 05:27:27;;;;;;;2.78;0.50;;;5.40;99.90;;;;;;4993392;28;20522;-77
2024/04/02 05:29:53;;;;;;;1.35;0.50;;;5.50;99.90;;;;;;4993636;28;20113;-77
2024/04/02 05:32:18;;;;;;;2.47;0.70;;;5.30;99.90;;;;;;4998476;28;20042;-77
2024/04/02 05:34:44;;;;;;;5.40;0.82;;;5.40;99.90;;;;;;4994104;28;20030;-80
2024/04/02 05:37:10;;;;;;;1.45;0.65;;;5.40;99.90;;;;;;4992391;28;20364;-79
2024/04/02 05:39:35;;;;;;;1.48;0.60;;;5.50;99.90;;;;;;4992912;28;20050;-79
2024/04/02 05:42:01;;;;;;;1.02;0.45;;;5.60;99.90;;;;;;4991953;28;20116;-79
2024/04/02 05:44:27;;;;;;;1.33;0.60;;;5.70;99.90;;;;;;4992511;28;20044;-78
2024/04/02 05:46:52;;;;;;;2.38;0.73;;;5.80;99.90;;;;;;4991597;28;20042;-79
2024/04/02 05:49:18;;;;;;;8.07;1.33;;;5.80;99.90;;;;;;4991266;28;20030;-81
2024/04/02 05:51:44;;;;;;;1.65;0.60;;;5.70;99.90;;;;;;4992372;28;20033;-79
2024/04/02 05:54:09;;;;;;;0.73;0.30;;;5.50;99.90;;;;;;4991873;28;20038;-79
2024/04/02 05:56:35;;;;;;;1.55;0.60;;;5.50;99.90;;;;;;4991661;28;20547;-79
2024/04/02 05:59:01;;;;;;;1.08;0.40;;;5.50;99.90;;;;;;4992157;28;20144;-78
2024/04/02 06:01:27;;;;;;;2.55;0.47;;;5.70;99.90;;;;;;4990685;28;20034;-80
2024/04/02 06:03:52;;;;;;;2.40;0.60;;;5.70;99.90;;;;;;4989786;28;20046;-81
2024/04/02 06:06:18;;;;;;;2.00;0.65;;;5.70;99.90;;;;;;4992118;28;20042;-81
2024/04/02 06:08:44;;;;;;;0.73;0.43;;;5.80;99.90;;;;;;4992003;28;20052;-79
2024/04/02 06:11:09;;;;;;;3.50;0.63;;;5.80;99.90;;;;;;4991445;28;20565;-81
2024/04/02 06:13:35;;;;;;;1.38;0.57;;;6.00;99.90;;;;;;4991498;28;20502;-80
2024/04/02 06:16:01;;;;;;;1.45;0.52;;;6.00;99.90;;;;;;4992851;28;20680;-79
2024/04/02 06:18:26;;;;;;;1.50;0.65;;;6.10;99.90;;;;;;4990271;28;20056;-80
2024/04/02 06:20:59;;;;;;;1.08;0.70;;;6.10;99.90;;;;;;4990158;28;20041;-83
2024/04/02 06:23:24;;;;;;;1.27;0.50;;;6.10;99.90;;;;;;4989410;28;20037;-81
2024/04/02 06:25:50;;;;;;;1.02;0.35;;;6.10;99.90;;;;;;4990207;28;20037;-81
2024/04/02 06:28:16;;;;;;;1.65;0.85;;;6.10;99.90;;;;;;4990611;28;20049;-81
2024/04/02 06:30:43;;;;;;;0.85;0.30;;;6.30;99.90;;;;;;4992051;28;20272;-81
2024/04/02 06:33:08;;;;;;;1.05;0.40;;;6.30;99.90;;;;;;4991343;28;20041;-82
2024/04/02 06:35:34;;;;;;;1.75;0.50;;;6.30;99.90;;;;;;4990740;28;20064;-77
2024/04/02 06:38:00;;;;;;;0.65;0.30;;;6.50;99.90;;;;;;4993068;28;20030;-80
2024/04/02 06:40:26;;;;;;;3.13;0.85;;;6.60;99.90;;;;;;4991011;28;20563;-80
2024/04/02 06:42:51;;;;;;;0.88;0.52;;;6.60;99.90;;;;;;4992073;28;20080;-82
2024/04/02 06:45:17;;;;;;;1.85;0.60;;;6.50;99.90;;;;;;4984819;28;20152;-81
2024/04/02 06:47:43;;;;;;;1.40;0.63;;;6.50;99.90;;;;;;4989943;28;21327;-81
2024/04/02 06:50:08;;;;;;;1.10;0.40;;;6.60;99.90;;;;;;4991007;28;20507;-82
2024/04/02 06:52:34;;;;;;;1.23;0.40;;;6.80;99.90;;;;;;4989555;28;20076;-81
2024/04/02 06:55:00;;;;;;;1.88;1.00;;;6.80;99.90;;;;;;4989794;28;20476;-82
2024/04/02 06:57:25;;;;;;;1.55;0.70;;;6.90;99.90;;;;;;4991528;28;20037;-82
2024/04/02 06:59:51;;;;;;;1.67;0.43;;;7.10;99.90;;;;;;4989746;28;20038;-82
2024/04/02 07:02:16;;;;;;;3.20;0.75;;;7.60;99.90;;;;;;4988990;28;20038;-82
2024/04/02 07:04:43;;;;;;;0.82;0.28;;;8.70;99.90;;;;;;4990916;28;20096;-82
2024/04/02 07:07:08;;;;;;;0.93;0.30;;;11.50;99.90;;;;;;4990592;28;20029;-82
2024/04/02 07:09:34;;;;;;;4.15;0.60;;;14.00;99.90;;;;;;4989389;28;20459;-80
2024/04/02 07:12:00;;;;;;;1.67;0.60;;;14.90;97.80;;;;;;4990955;28;20051;-79
2024/04/02 07:14:26;;;;;;;1.48;0.80;;;14.70;97.10;;;;;;4989652;28;20145;-79
2024/04/02 07:16:53;;;;;;;1.25;0.47;;;15.20;96.60;;;;;;4991271;28;20133;-80
2024/04/02 07:19:19;;;;;;;1.58;0.40;;;15.20;96.50;;;;;;4989088;28;20116;-80
2024/04/02 07:21:45;;;;;;;1.20;0.47;;;14.10;96.80;;;;;;4989716;28;20246;-80
2024/04/02 07:24:10;;;;;;;0.25;0.20;;;11.60;99.90;;;;;;4991033;28;20048;-79
2024/04/02 07:26:36;;;;;;;0.45;0.20;;;10.00;99.90;;;;;;4990129;28;20968;-80
2024/04/02 07:29:02;;;;;;;1.48;0.40;;;9.00;99.90;;;;;;4989502;28;20061;-79
2024/04/02 07:31:28;;;;;;;1.67;0.40;;;8.60;99.90;;;;;;4990725;28;20068;-81
2024/04/02 07:33:54;;;;;;;1.70;0.50;;;8.40;99.90;;;;;;4989721;28;20607;-82
2024/04/02 07:36:20;;;;;;;1.55;0.43;;;8.10;99.90;;;;;;4988808;28;20034;-82
2024/04/02 07:38:46;;;;;;;1.02;0.40;;;8.00;99.90;;;;;;4989994;28;20653;-82
2024/04/02 07:41:12;;;;;;;3.10;1.30;;;8.00;99.90;;;;;;4989612;28;20500;-81
2024/04/02 07:43:37;;;;;;;3.60;0.40;;;8.00;99.90;;;;;;4989008;28;20049;-82
2024/04/02 07:46:03;;;;;;;2.47;0.45;;;7.90;99.90;;;;;;4989724;28;20129;-82
2024/04/02 07:48:29;;;;;;;1.08;0.50;;;8.00;99.90;;;;;;4987752;28;20040;-82
2024/04/02 07:50:56;;;;;;;1.17;0.40;;;8.00;99.90;;;;;;4989489;28;20785;-81
2024/04/02 07:53:23;;;;;;;0.43;0.22;;;8.10;99.90;;;;;;4990182;28;20044;-81
2024/04/02 07:55:49;;;;;;;0.88;0.40;;;8.30;99.90;;;;;;4989640;28;20467;-81
2024/04/02 07:58:15;;;;;;;3.92;0.60;;;8.30;99.90;;;;;;4989014;28;20065;-82
2024/04/02 08:00:44;;;;;;;1.63;0.52;;;8.40;99.90;;;;;;4989559;28;20874;-81
2024/04/02 08:03:09;;;;;;;0.80;0.20;;;8.50;99.90;;;;;;4986489;28;20088;-82
2024/04/02 08:05:35;;;;;;;2.38;0.52;;;8.50;99.90;;;;;;4989256;28;20042;-81
2024/04/02 08:08:02;;;;;;;1.55;0.52;;;8.60;99.90;;;;;;4988539;28;20033;-81
2024/04/02 08:10:28;;;;;;;4.57;0.55;;;8.70;99.90;;;;;;4988041;28;20029;-83
2024/04/02 08:12:54;;;;;;;1.10;0.40;;;8.70;99.90;;;;;;4989991;28;20680;-81
2024/04/02 08:15:20;;;;;;;4.50;0.60;;;8.90;99.90;;;;;;4989573;28;20069;-82
2024/04/02 08:17:45;;;;;;;2.20;0.93;;;9.10;99.90;;;;;;4990885;28;20676;-83
2024/04/02 08:20:11;;;;;;;4.95;1.80;;;9.20;99.90;;;;;;4993476;28;20046;-82
2024/04/02 08:22:37;;;;;;;5.05;1.50;;;9.10;99.90;;;;;;4992197;28;20038;-82
2024/04/02 08:25:03;;;;;;;4.22;0.80;;;9.20;99.90;;;;;;4991128;28;20049;-82
2024/04/02 08:27:29;;;;;;;3.75;1.42;;;9.10;99.90;;;;;;4992553;28;20045;-82
2024/04/02 08:29:54;;;;;;;3.00;0.75;;;9.30;99.90;;;;;;4992141;28;20092;-81
2024/04/02 08:32:22;;;;;;;1.95;0.75;;;9.50;99.90;;;;;;4991977;28;20038;-82
2024/04/02 08:34:48;;;;;;;2.40;0.60;;;9.40;99.90;;;;;;4992900;28;20029;-81
2024/04/02 08:37:14;;;;;;;2.58;0.93;;;9.60;99.90;;;;;;4992445;28;20052;-82
2024/04/02 08:39:40;;;;;;;2.45;0.98;;;9.50;99.90;;;;;;4992061;28;20426;-82
2024/04/02 08:42:06;;;;;;;1.70;0.60;;;9.60;99.90;;;;;;4992204;28;20565;-82
2024/04/02 08:44:34;;;;;;;4.15;0.80;;;9.70;99.90;;;;;;4991734;28;20037;-82
2024/04/02 08:47:00;;;;;;;4.90;0.90;;;9.80;99.90;;;;;;4991058;28;20069;-81
2024/04/02 08:49:26;;;;;;;2.78;0.77;;;10.00;99.90;;;;;;4993405;28;20030;-82
2024/04/02 08:51:55;;;;;;;2.97;1.10;;;10.10;99.90;;;;;;4991666;28;20030;-81
2024/04/02 08:54:21;;;;;;;1.52;0.50;;;10.30;99.90;;;;;;4990999;28;20030;-82
2024/04/02 08:56:47;;;;;;;2.70;1.13;;;10.20;99.90;;;;;;4992128;28;20129;-82
2024/04/02 08:59:16;;;;;;;4.10;0.70;;;9.90;99.90;;;;;;4994302;28;20536;-81
2024/04/02 09:01:44;;;;;;;0.95;0.43;;;10.00;99.90;;;;;;4995224;28;20045;-82
2024/04/02 09:04:12;;;;;;;1.85;0.90;;;10.10;99.90;;;;;;4995595;28;20120;-81
2024/04/02 09:06:38;;;;;;;2.97;0.60;;;11.20;99.90;;;;;;4996473;28;20385;-82
2024/04/02 09:09:06;;;;;;;2.80;0.82;;;13.10;99.90;;;;;;4995159;28;20413;-81
2024/04/02 09:11:34;;;;;;;1.98;0.60;;;14.80;99.90;;;;;;4995331;28;20045;-81
2024/04/02 09:14:04;;;;;;;2.72;0.88;;;15.40;99.90;;;;;;4996448;28;20052;-82
2024/04/02 09:16:33;;;;;;;3.20;1.02;;;15.70;99.90;;;;;;4995688;28;20554;-81
2024/04/02 09:18:59;;;;;;;2.08;0.63;;;17.20;97.50;;;;;;4994797;28;20117;-81
2024/04/02 09:21:27;;;;;;;1.55;0.70;;;17.80;96.90;;;;;;4995540;28;20076;-81
2024/04/02 09:23:54;;;;;;;2.72;0.77;;;16.70;98.50;;;;;;4995160;28;20033;-81
2024/04/02 09:26:22;;;;;;;2.05;0.77;;;17.40;97.30;;;;;;4994846;28;20068;-82
2024/04/02 09:28:51;;;;;;;1.92;0.63;;;17.20;96.50;;;;;;4994738;28;20029;-79
2024/04/02 09:31:17;;;;;;;1.48;0.65;;;18.60;96.70;;;;;;4995978;28;20033;-79
2024/04/02 09:33:47;;;;;;;2.15;0.50;;;18.30;96.60;;;;;;4994922;28;20053;-82
2024/04/02 09:36:38;;;;;;;2.28;0.80;;;18.60;95.90;;;;;;4994040;28;20034;-82
2024/04/02 09:39:04;;;;;;;2.83;1.05;;;18.50;96.00;;;;;;4994886;28;20037;-81
2024/04/02 09:41:37;;;;;;;1.67;0.68;;;16.90;98.00;;;;;;4994419;28;20038;-82
2024/04/02 09:44:04;;;;;;;2.72;0.60;;;16.70;97.30;;;;;;4995313;28;20048;-81
2024/04/02 09:46:31;;;;;;;1.55;0.60;;;14.20;99.20;;;;;;4993878;28;20057;-81
2024/04/02 09:48:58;;;;;;;2.70;0.95;;;13.60;99.50;;;;;;4994778;28;20836;-81
2024/04/02 09:51:26;;;;;;;1.85;0.50;;;12.30;99.90;;;;;;4995448;28;20612;-81
2024/04/02 09:53:54;;;;;;;1.83;0.70;;;12.40;99.90;;;;;;4994827;28;20068;-82
2024/04/02 09:56:22;;;;;;;1.13;0.68;;;12.50;99.90;;;;;;4994175;28;20571;-81
2024/04/02 09:58:48;;;;;;;1.75;0.80;;;12.70;99.90;;;;;;4994196;28;20025;-81
2024/04/02 10:01:20;;;;;;;3.30;1.33;;;12.50;99.90;;;;;;4994853;28;20076;-81
2024/04/02 10:03:48;;;;;;;3.08;0.90;;;12.40;99.90;;;;;;4994102;28;20107;-82
2024/04/02 10:06:14;;;;;;;1.50;0.47;;;12.00;99.90;;;;;;4993802;28;20033;-82
2024/04/02 10:08:39;;;;;;;5.30;2.75;;;11.70;99.90;;;;;;4995466;28;20030;-82
2024/04/02 10:11:09;;;;;;;5.55;2.95;;;12.30;99.90;;;;;;4992607;28;20594;-81
2024/04/02 10:13:39;;;;;;;4.10;1.98;;;12.90;99.90;;;;;;4993981;28;20041;-82
2024/04/02 10:16:08;;;;;;;2.92;1.58;;;13.30;99.90;;;;;;4992835;28;23334;-81
2024/04/02 10:18:34;;;;;;;2.20;0.80;;;13.30;99.90;;;;;;4994680;28;20034;-82
2024/04/02 10:21:00;;;;;;;2.30;0.90;;;13.30;99.90;;;;;;4994039;28;20132;-82
2024/04/02 10:23:26;;;;;;;1.08;0.45;;;13.10;99.90;;;;;;4993810;28;20497;-82
2024/04/02 10:25:55;;;;;;;1.25;0.40;;;12.90;99.90;;;;;;4991671;28;20468;-81
2024/04/02 10:28:25;;;;;;;1.25;0.50;;;12.80;99.90;;;;;;4990175;28;20624;-82
2024/04/02 10:30:51;;;;;;;1.95;0.60;;;12.60;99.90;;;;;;4992973;28;20065;-81
2024/04/02 10:33:21;;;;;;;2.72;0.32;;;12.70;99.90;;;;;;4992786;28;20041;-81
2024/04/02 10:35:47;;;;;;;0.98;0.43;;;13.00;99.90;;;;;;4993670;28;20030;-81
2024/04/02 10:38:13;;;;;;;0.30;0.20;;;13.10;99.90;;;;;;4993819;28;20116;-81
2024/04/02 10:40:39;;;;;;;2.13;0.88;;;13.30;99.90;;;;;;4995047;28;20095;-81
2024/04/02 10:43:05;;;;;;;2.40;1.23;;;13.10;99.90;;;;;;4993799;28;20641;-81
2024/04/02 10:45:31;;;;;;;3.53;0.93;;;13.30;99.90;;;;;;4994218;28;20409;-81
2024/04/02 10:47:57;;;;;;;1.95;0.55;;;13.40;99.90;;;;;;4993175;28;20041;-81
2024/04/02 10:50:24;;;;;;;1.77;0.45;;;13.40;99.90;;;;;;4994825;28;20073;-79
2024/04/02 10:52:52;;;;;;;0.57;0.40;;;13.50;99.90;;;;;;4993346;28;20037;-79
2024/04/02 10:55:18;;;;;;;0.75;0.30;;;13.60;99.90;;;;;;4993667;28;21579;-79
2024/04/02 10:57:44;;;;;;;1.75;0.40;;;13.40;99.90;;;;;;4994706;28;20088;-79
2024/04/02 11:00:14;;;;;;;0.85;0.30;;;13.30;99.90;;;;;;4993389;28;20720;-79
2024/04/02 11:02:41;;;;;;;2.83;0.65;;;13.70;99.90;;;;;;4992551;28;20128;-79
2024/04/02 11:05:12;;;;;;;3.47;1.60;;;13.60;99.90;;;;;;4994115;28;20026;-79
2024/04/02 11:07:38;;;;;;;3.72;1.50;;;13.80;99.90;;;;;;4993876;28;20042;-78
2024/04/02 11:10:04;;;;;;;4.05;1.15;;;14.20;99.90;;;;;;4991962;28;20034;-79
2024/04/02 11:12:30;;;;;;;1.60;0.60;;;14.20;99.90;;;;;;4992212;28;20084;-79
2024/04/02 11:14:56;;;;;;;0.98;0.35;;;14.20;99.90;;;;;;4993790;28;20025;-80
2024/04/02 11:17:22;;;;;;;2.47;0.82;;;14.20;99.90;;;;;;4993485;28;20037;-80
2024/04/02 11:19:49;;;;;;;0.88;0.40;;;13.90;99.90;;;;;;4992152;28;20076;-81
2024/04/02 11:25:11;;;;;;;4.18;0.70;;;14.70;99.90;;;;;;4994183;28;20129;-82
2024/04/02 11:27:38;;;;;;;4.22;1.33;;;14.40;99.50;;;;;;4993243;28;20052;-81
2024/04/02 11:30:04;;;;;;;2.22;0.90;;;14.70;99.70;;;;;;4991828;28;21067;-81
2024/04/02 11:32:30;;;;;;;1.85;0.50;;;15.00;99.90;;;;;;4993732;28;20104;-79
2024/04/02 11:34:57;;;;;;;1.25;0.30;;;14.90;99.90;;;;;;4991877;28;21318;-78
2024/04/02 11:37:24;;;;;;;1.70;0.22;;;14.90;99.90;;;;;;4991982;28;20034;-78
2024/04/02 11:39:50;;;;;;;2.00;0.60;;;14.90;99.90;;;;;;4993712;28;20155;-79
2024/04/02 11:42:16;;;;;;;0.98;0.50;;;15.00;99.80;;;;;;4992042;28;20723;-79
2024/04/02 11:44:42;;;;;;;1.08;0.43;;;14.90;99.90;;;;;;4991186;28;20049;-79
2024/04/02 11:47:07;;;;;;;5.85;0.65;;;15.10;99.80;;;;;;4993470;28;20104;-78
2024/04/02 11:49:33;;;;;;;1.98;0.43;;;15.00;98.70;;;;;;4992160;28;20395;-79
2024/04/02 11:51:59;;;;;;;2.60;0.40;;;15.00;99.10;;;;;;4988225;28;20044;-78
2024/04/02 11:54:25;;;;;;;1.33;0.35;;;14.90;98.30;;;;;;4990211;28;20467;-78
2024/04/02 12:02:21;;;;;;;19.90;7.85;;;15.10;97.40;;;;;;4987882;28;20196;-78
2024/04/02 12:04:46;;;;;;;32.08;14.02;;;15.20;97.50;;;;;;4987898;28;20018;-78
2024/04/02 12:07:12;;;;;;;194.00;94.00;;;15.50;98.90;;;;;;4989088;28;21337;-78
2024/04/02 12:09:40;;;;;;;114.20;58.40;;;15.90;99.00;;;;;;4989305;28;20034;-78
2024/04/02 12:12:07;;;;;;;41.35;22.88;;;15.70;98.00;;;;;;4987724;28;20038;-78
2024/04/02 12:14:33;;;;;;;9.45;4.10;;;15.80;97.70;;;;;;4988684;28;20044;-78
2024/04/02 12:16:58;;;;;;;2.28;1.00;;;15.80;98.70;;;;;;4989391;28;20030;-78
2024/04/02 12:19:24;;;;;;;0.90;0.38;;;15.80;97.80;;;;;;4988864;28;20666;-78
2024/04/02 12:21:50;;;;;;;0.75;0.40;;;16.10;98.30;;;;;;4988895;28;20041;-78
2024/04/02 12:24:17;;;;;;;0.77;0.28;;;16.10;96.70;;;;;;4986002;28;20469;-78
2024/04/02 12:26:42;;;;;;;31.52;16.30;;;16.20;97.20;;;;;;4987715;28;20686;-78
2024/04/02 12:29:08;;;;;;;16.70;9.95;;;16.10;96.90;;;;;;4988045;28;20034;-78
2024/04/02 12:31:34;;;;;;;6.90;2.92;;;16.10;97.60;;;;;;4992182;28;20034;-79
2024/04/02 12:33:59;;;;;;;4.63;1.88;;;15.70;96.70;;;;;;4995673;28;20495;-76
2024/04/02 12:36:25;;;;;;;1.52;0.60;;;15.60;98.10;;;;;;4993037;28;20427;-77
2024/04/02 12:38:51;;;;;;;4.32;0.38;;;15.80;98.20;;;;;;4992504;28;20618;-77
2024/04/02 12:41:16;;;;;;;0.75;0.25;;;16.20;98.20;;;;;;4991790;28;20045;-79
2024/04/02 12:43:42;;;;;;;12.45;5.00;;;16.10;96.60;;;;;;4992495;28;20041;-79
2024/04/02 12:46:08;;;;;;;20.92;10.75;;;16.20;96.70;;;;;;4991338;28;20062;-78
2024/04/02 12:48:35;;;;;;;9.10;4.32;;;16.30;96.70;;;;;;4991986;28;20034;-79
2024/04/02 12:51:03;;;;;;;2.45;1.10;;;16.20;96.60;;;;;;4991829;28;20057;-79
2024/04/02 12:53:29;;;;;;;2.85;0.50;;;16.10;96.70;;;;;;4992065;28;20153;-76
2024/04/02 12:55:54;;;;;;;4.05;1.73;;;16.70;95.40;;;;;;4991893;28;20448;-77